Time;durP1;ratioP1;P1;durP2;ratioP2;P2;SDS_P1;SDS_P2;PMS_P1;PMS_P2;Temp;Humidity;BMP_temperature;BMP_pressure;BME280_temperature;BME280_humidity;BME280_pressure;Samples;Min_cycle;Max_cycle;Signal;HPM_P1;HPM_P2
2022/07/22 00:00:55;;;;;;;6.28;4.25;;;;;;;22.78;54.02;98672.19;1655825;86;25620;-63
2022/07/22 00:03:22;;;;;;;5.60;4.42;;;;;;;22.73;54.12;98676.75;1656008;86;26147;-63
2022/07/22 00:05:48;;;;;;;5.67;4.00;;;;;;;22.71;54.33;98672.96;1655793;86;25453;-63
2022/07/22 00:08:14;;;;;;;6.47;4.10;;;;;;;22.69;54.38;98673.97;1655782;86;27566;-64
2022/07/22 00:10:41;;;;;;;8.30;4.60;;;;;;;22.67;54.40;98669.38;1656075;86;25474;-63
2022/07/22 00:13:07;;;;;;;6.22;4.65;;;;;;;22.64;55.08;98674.34;1655764;86;25674;-63
2022/07/22 00:15:34;;;;;;;7.05;4.95;;;;;;;22.56;55.07;98667.33;1655801;86;25947;-63
2022/07/22 00:18:00;;;;;;;7.42;4.90;;;;;;;22.51;55.25;98673.29;1656314;86;25444;-63
2022/07/22 00:20:27;;;;;;;7.15;5.03;;;;;;;22.47;55.33;98671.09;1656144;86;27469;-63
2022/07/22 00:22:53;;;;;;;7.78;5.42;;;;;;;22.44;56.06;98676.88;1655912;86;25910;-63
2022/07/22 00:25:19;;;;;;;7.42;5.00;;;;;;;22.39;56.05;98672.28;1656021;86;25631;-63
2022/07/22 00:27:45;;;;;;;8.10;5.53;;;;;;;22.35;56.20;98677.03;1655213;86;25818;-64
2022/07/22 00:30:12;;;;;;;9.90;5.12;;;;;;;22.29;56.73;98674.64;1655703;86;25619;-63
2022/07/22 00:32:38;;;;;;;6.50;4.90;;;;;;;22.25;57.05;98676.59;1655858;86;27453;-63
2022/07/22 00:35:07;;;;;;;8.65;5.30;;;;;;;22.22;57.07;98677.38;1655369;86;25684;-63
2022/07/22 00:37:32;;;;;;;9.53;5.20;;;;;;;22.16;57.13;98674.18;1655641;86;25707;-64
2022/07/22 00:39:59;;;;;;;8.08;5.67;;;;;;;22.15;57.59;98684.34;1655319;86;27801;-63
2022/07/22 00:42:26;;;;;;;10.48;5.90;;;;;;;22.14;57.54;98685.54;1655869;86;25693;-64
2022/07/22 00:44:51;;;;;;;12.88;5.62;;;;;;;22.15;58.06;98685.73;1655393;86;27540;-63
2022/07/22 00:47:17;;;;;;;9.60;5.83;;;;;;;22.09;58.69;98688.11;1655546;86;25836;-62
2022/07/22 00:49:44;;;;;;;10.03;5.95;;;;;;;22.03;58.79;98684.09;1655589;86;25479;-63
2022/07/22 00:52:12;;;;;;;9.43;5.50;;;;;;;22.00;58.74;98684.88;1655291;86;25753;-62
2022/07/22 00:54:39;;;;;;;8.63;5.75;;;;;;;21.95;59.17;98688.83;1655625;86;25439;-64
2022/07/22 00:57:05;;;;;;;10.68;6.67;;;;;;;21.96;59.15;98691.03;1655320;86;27488;-63
2022/07/22 00:59:33;;;;;;;9.80;5.92;;;;;;;21.97;59.25;98687.05;1655199;86;25623;-63
2022/07/22 01:01:59;;;;;;;6.67;5.97;;;;;;;21.96;59.53;98687.63;1655218;86;25481;-63
2022/07/22 01:04:26;;;;;;;8.95;5.70;;;;;;;21.97;59.34;98693.44;1655764;86;25717;-63
2022/07/22 01:06:52;;;;;;;9.38;5.83;;;;;;;21.98;59.65;98694.22;1655314;86;25588;-63
2022/07/22 01:09:18;;;;;;;11.10;5.85;;;;;;;21.98;59.55;98698.41;1655271;86;27539;-64
2022/07/22 01:11:45;;;;;;;7.35;5.72;;;;;;;22.04;59.77;98695.45;1655242;86;25454;-64
2022/07/22 01:14:11;;;;;;;8.28;5.53;;;;;;;22.08;59.73;98699.66;1655856;86;25663;-63
2022/07/22 01:16:38;;;;;;;7.67;5.22;;;;;;;22.12;59.69;98694.89;1655516;86;26572;-64
2022/07/22 01:19:05;;;;;;;7.40;5.50;;;;;;;22.13;59.76;98697.28;1655684;86;25402;-63
2022/07/22 01:21:32;;;;;;;8.25;5.70;;;;;;;22.15;59.66;98701.89;1655443;86;27581;-63
2022/07/22 01:23:59;;;;;;;6.25;5.55;;;;;;;22.15;59.80;98696.31;1655267;86;25748;-63
2022/07/22 01:26:25;;;;;;;8.93;5.62;;;;;;;22.12;59.86;98695.70;1655650;86;25746;-64
2022/07/22 01:28:51;;;;;;;7.08;5.70;;;;;;;22.07;60.20;98694.66;1655698;86;25862;-63
2022/07/22 01:31:18;;;;;;;12.65;6.10;;;;;;;22.03;60.09;98689.67;1655746;86;25449;-64
2022/07/22 01:33:44;;;;;;;9.78;6.40;;;;;;;22.05;60.08;98692.88;1655769;86;27601;-63
2022/07/22 01:36:10;;;;;;;8.20;5.45;;;;;;;22.05;59.98;98695.67;1655750;86;25662;-63
2022/07/22 01:38:37;;;;;;;7.78;5.75;;;;;;;22.06;60.06;98691.68;1656180;86;25667;-64
2022/07/22 01:41:04;;;;;;;7.33;6.10;;;;;;;22.08;60.14;98693.50;1656132;86;25816;-63
2022/07/22 01:43:31;;;;;;;10.40;5.92;;;;;;;22.09;60.08;98697.87;1656187;86;25416;-63
2022/07/22 01:45:57;;;;;;;9.15;5.78;;;;;;;22.08;60.19;98699.08;1656140;86;27352;-63
2022/07/22 01:48:24;;;;;;;8.30;6.00;;;;;;;22.06;60.19;98703.66;1655863;86;25878;-63
2022/07/22 01:50:51;;;;;;;9.33;6.20;;;;;;;22.06;60.04;98702.25;1655643;86;25669;-63
2022/07/22 01:53:18;;;;;;;7.67;5.62;;;;;;;22.08;60.16;98706.05;1655976;86;26487;-63
2022/07/22 01:55:44;;;;;;;11.33;6.40;;;;;;;22.08;60.17;98717.21;1655732;86;25665;-63
2022/07/22 01:58:11;;;;;;;7.83;6.17;;;;;;;22.10;60.30;98723.19;1656177;86;27496;-63
2022/07/22 02:00:38;;;;;;;6.92;6.15;;;;;;;22.09;60.20;98727.17;1655843;86;25869;-63
2022/07/22 02:03:05;;;;;;;9.93;6.55;;;;;;;22.09;60.28;98734.15;1655713;86;25655;-63
2022/07/22 02:05:31;;;;;;;11.93;6.28;;;;;;;22.10;60.33;98738.53;1655775;86;25900;-63
2022/07/22 02:08:03;;;;;;;7.05;6.00;;;;;;;22.11;60.19;98739.34;1655752;86;25610;-63
2022/07/22 02:10:29;;;;;;;9.50;6.03;;;;;;;22.12;60.35;98754.30;1655844;86;27617;-63
2022/07/22 02:12:58;;;;;;;7.28;5.80;;;;;;;22.11;60.52;98756.89;1655612;86;25607;-63
2022/07/22 02:15:26;;;;;;;5.95;5.35;;;;;;;22.11;60.37;98762.48;1656066;86;25436;-63
2022/07/22 02:17:53;;;;;;;8.30;5.55;;;;;;;22.10;60.45;98762.25;1656040;86;25737;-63
2022/07/22 02:20:22;;;;;;;8.53;5.97;;;;;;;22.10;60.44;98758.68;1656134;86;25740;-63
2022/07/22 02:22:48;;;;;;;12.58;5.50;;;;;;;22.06;60.54;98760.85;1656038;86;28205;-62
2022/07/22 02:25:14;;;;;;;7.30;5.42;;;;;;;22.04;60.51;98764.62;1655751;86;25430;-63
2022/07/22 02:27:41;;;;;;;9.50;5.72;;;;;;;22.01;60.77;98774.34;1655466;85;25678;-63
2022/07/22 02:30:09;;;;;;;8.68;5.17;;;;;;;21.98;60.62;98768.16;1655454;86;26579;-61
2022/07/22 02:32:36;;;;;;;7.60;5.50;;;;;;;21.95;60.82;98765.55;1655580;86;25684;-55
2022/07/22 02:35:03;;;;;;;7.62;5.05;;;;;;;21.92;60.78;98774.70;1655379;86;27499;-63
2022/07/22 02:37:29;;;;;;;8.25;5.80;;;;;;;21.89;60.80;98774.89;1655140;86;25691;-64
2022/07/22 02:39:56;;;;;;;7.37;5.90;;;;;;;21.86;60.75;98768.69;1655213;86;25627;-63
2022/07/22 02:42:22;;;;;;;6.70;5.53;;;;;;;21.86;60.99;98769.27;1655186;86;25722;-63
2022/07/22 02:44:48;;;;;;;7.97;5.50;;;;;;;21.81;60.96;98776.02;1655246;86;25427;-63
2022/07/22 02:47:14;;;;;;;8.98;5.78;;;;;;;21.76;61.29;98781.97;1655605;86;27573;-63
2022/07/22 02:49:40;;;;;;;8.75;5.80;;;;;;;21.65;61.63;98785.42;1655439;86;25664;-63
2022/07/22 02:52:07;;;;;;;8.68;5.55;;;;;;;21.59;61.68;98788.39;1655512;86;25498;-63
2022/07/22 02:54:32;;;;;;;7.30;5.78;;;;;;;21.56;61.98;98788.55;1655556;86;25890;-60
2022/07/22 02:56:59;;;;;;;9.00;5.30;;;;;;;21.57;61.74;98790.75;1655719;86;25585;-63
2022/07/22 02:59:25;;;;;;;8.38;5.37;;;;;;;21.61;61.94;98799.13;1655789;86;27455;-63
2022/07/22 03:01:51;;;;;;;9.05;5.72;;;;;;;21.65;61.70;98797.97;1655188;86;25611;-63
2022/07/22 03:04:17;;;;;;;8.58;5.60;;;;;;;21.71;61.56;98805.99;1655197;86;25661;-63
2022/07/22 03:06:43;;;;;;;7.35;5.95;;;;;;;21.75;61.66;98803.44;1655525;86;25654;-63
2022/07/22 03:09:09;;;;;;;7.65;5.60;;;;;;;21.79;61.62;98804.91;1655600;86;25683;-63
2022/07/22 03:11:35;;;;;;;6.65;5.50;;;;;;;21.80;61.57;98802.31;1655270;86;29611;-62
2022/07/22 03:14:01;;;;;;;9.30;5.53;;;;;;;21.83;61.53;98810.49;1655355;86;25618;-63
2022/07/22 03:16:28;;;;;;;7.83;5.92;;;;;;;21.83;61.89;98814.09;1655580;86;25483;-62
2022/07/22 03:18:54;;;;;;;8.38;5.70;;;;;;;21.79;61.88;98810.48;1655433;86;26639;-63
2022/07/22 03:21:21;;;;;;;7.60;6.37;;;;;;;21.80;62.04;98817.66;1655325;86;25471;-63
2022/07/22 03:23:47;;;;;;;9.60;6.05;;;;;;;21.80;62.04;98813.47;1655386;86;27980;-63
2022/07/22 03:26:14;;;;;;;7.85;5.47;;;;;;;21.80;62.03;98817.07;1655636;86;25624;-63
2022/07/22 03:28:40;;;;;;;8.63;5.72;;;;;;;21.81;62.22;98814.48;1655362;86;25683;-62
2022/07/22 03:31:06;;;;;;;9.25;6.08;;;;;;;21.81;62.50;98817.27;1655320;86;25722;-62
2022/07/22 03:33:32;;;;;;;12.50;5.65;;;;;;;21.77;62.54;98814.24;1655742;86;25498;-63
2022/07/22 03:35:58;;;;;;;8.45;5.92;;;;;;;21.77;62.28;98816.45;1655580;86;27505;-63
2022/07/22 03:38:24;;;;;;;7.20;5.85;;;;;;;21.81;62.46;98817.86;1655256;86;25735;-63
2022/07/22 03:40:50;;;;;;;8.60;6.53;;;;;;;21.85;62.44;98826.26;1655720;86;25485;-63
2022/07/22 03:43:16;;;;;;;7.60;5.90;;;;;;;21.88;62.68;98821.30;1655327;86;25733;-62
2022/07/22 03:45:44;;;;;;;9.90;6.08;;;;;;;21.90;62.39;98816.12;1655358;86;25680;-63
2022/07/22 03:48:11;;;;;;;7.70;5.95;;;;;;;21.97;62.45;98820.37;1655361;86;27504;-63
2022/07/22 03:50:37;;;;;;;7.87;5.58;;;;;;;22.03;62.52;98824.41;1655298;86;25663;-63
2022/07/22 03:53:04;;;;;;;7.20;5.58;;;;;;;22.10;62.20;98816.66;1655711;86;25546;-63
2022/07/22 03:55:30;;;;;;;7.03;5.60;;;;;;;22.16;62.18;98812.91;1655663;86;25697;-63
2022/07/22 03:57:56;;;;;;;8.23;5.62;;;;;;;22.22;62.14;98803.59;1655387;86;25451;-64
2022/07/22 04:00:22;;;;;;;6.03;5.42;;;;;;;22.20;62.23;98812.36;1655329;86;29622;-64
2022/07/22 04:02:49;;;;;;;7.03;5.70;;;;;;;22.18;62.61;98810.54;1655501;86;25768;-64
2022/07/22 04:05:15;;;;;;;8.33;5.78;;;;;;;22.22;62.10;98814.76;1655613;86;26181;-62
2022/07/22 04:07:42;;;;;;;7.62;5.15;;;;;;;22.22;62.01;98814.76;1655321;86;25753;-64
2022/07/22 04:10:10;;;;;;;6.40;5.47;;;;;;;22.24;62.27;98808.17;1655551;86;25455;-64
2022/07/22 04:12:39;;;;;;;7.42;5.37;;;;;;;22.24;62.63;98800.61;1655615;86;28288;-63
2022/07/22 04:15:08;;;;;;;7.00;5.33;;;;;;;22.30;61.69;98803.23;1655525;86;25471;-63
2022/07/22 04:17:35;;;;;;;11.93;5.85;;;;;;;22.40;61.60;98807.27;1655568;86;25646;-64
2022/07/22 04:20:02;;;;;;;8.70;5.80;;;;;;;22.48;61.40;98812.91;1655667;86;25809;-64
2022/07/22 04:22:28;;;;;;;8.15;5.30;;;;;;;22.60;61.00;98811.79;1655592;86;25670;-64
2022/07/22 04:24:55;;;;;;;7.05;5.60;;;;;;;22.75;60.60;98809.27;1655476;86;27518;-63
2022/07/22 04:27:21;;;;;;;5.87;5.03;;;;;;;22.84;60.62;98815.88;1655463;86;25575;-64
2022/07/22 04:29:48;;;;;;;6.30;5.33;;;;;;;22.85;60.04;98806.29;1644783;86;25654;-64
2022/07/22 04:32:14;;;;;;;6.20;5.55;;;;;;;22.90;60.10;98807.31;1632222;87;25704;-64
2022/07/22 04:34:41;;;;;;;5.65;4.97;;;;;;;22.99;60.42;98813.11;1632429;87;25698;-64
2022/07/22 04:37:08;;;;;;;7.12;5.55;;;;;;;23.01;60.03;98807.35;1632384;87;27488;-64
2022/07/22 04:39:34;;;;;;;7.00;5.53;;;;;;;23.10;59.98;98811.16;1632236;87;25600;-64
2022/07/22 04:42:00;;;;;;;10.90;5.60;;;;;;;23.25;60.05;98805.59;1632300;87;25528;-64
2022/07/22 04:44:32;;;;;;;7.22;5.45;;;;;;;23.36;59.61;98813.41;1632642;87;25841;-64
2022/07/22 04:46:58;;;;;;;8.85;5.70;;;;;;;23.54;59.10;98807.86;1578491;87;25614;-64
2022/07/22 04:49:25;;;;;;;8.43;5.37;;;;;;;23.70;57.90;98801.07;1632780;87;27538;-64
2022/07/22 04:51:52;;;;;;;8.60;5.60;;;;;;;23.85;58.22;98802.45;1632256;87;25685;-65
2022/07/22 04:54:18;;;;;;;10.00;5.78;;;;;;;24.06;57.95;98801.62;1632709;87;25495;-64
2022/07/22 04:56:44;;;;;;;6.42;5.72;;;;;;;24.27;57.87;98799.41;1632202;87;25788;-64
2022/07/22 04:59:10;;;;;;;7.47;5.47;;;;;;;24.40;56.96;98800.37;1632836;87;25593;-64
2022/07/22 05:01:37;;;;;;;6.92;5.42;;;;;;;24.50;55.99;98800.95;1632561;87;27435;-65
2022/07/22 05:04:05;;;;;;;7.85;5.67;;;;;;;24.64;56.41;98800.08;1632120;87;25763;-64
2022/07/22 05:06:31;;;;;;;11.68;5.55;;;;;;;24.78;55.95;98798.45;1632307;87;25505;-65
2022/07/22 05:08:57;;;;;;;5.70;5.10;;;;;;;24.80;55.31;98805.23;1632536;87;25945;-65
2022/07/22 05:11:23;;;;;;;6.65;5.70;;;;;;;24.90;56.28;98817.61;1632622;87;25608;-65
2022/07/22 05:13:50;;;;;;;9.05;5.12;;;;;;;24.98;55.68;98822.58;1632542;87;27486;-64
2022/07/22 05:16:16;;;;;;;8.70;5.87;;;;;;;24.96;54.55;98805.98;1632279;87;25678;-65
2022/07/22 05:18:42;;;;;;;6.42;5.03;;;;;;;24.98;53.71;98797.97;1632606;87;25455;-64
2022/07/22 05:21:09;;;;;;;5.37;4.87;;;;;;;25.07;54.02;98794.09;1632471;87;25801;-64
2022/07/22 05:23:35;;;;;;;9.10;5.30;;;;;;;25.04;54.15;98788.70;1632366;87;25656;-65
2022/07/22 05:26:05;;;;;;;5.50;4.78;;;;;;;24.98;54.15;98779.13;1632375;87;27697;-65
2022/07/22 05:28:32;;;;;;;6.50;5.10;;;;;;;24.87;53.40;98780.56;1632422;87;25694;-64
2022/07/22 05:30:58;;;;;;;5.70;4.95;;;;;;;24.89;53.57;98775.97;1632330;86;25808;-65
2022/07/22 05:33:25;;;;;;;6.45;5.03;;;;;;;24.85;54.05;98780.19;1632632;87;25705;-65
2022/07/22 05:35:51;;;;;;;7.05;5.00;;;;;;;24.83;53.56;98778.98;1632307;87;25459;-64
2022/07/22 05:38:19;;;;;;;6.00;5.45;;;;;;;24.77;54.00;98789.23;1632359;87;27651;-64
2022/07/22 05:40:46;;;;;;;7.03;5.00;;;;;;;24.85;54.00;98802.61;1632330;87;25609;-63
2022/07/22 05:43:12;;;;;;;6.30;4.78;;;;;;;24.96;55.24;98814.39;1632227;87;25652;-63
2022/07/22 05:45:40;;;;;;;7.20;5.40;;;;;;;25.01;54.27;98811.17;1632287;87;25642;-64
2022/07/22 05:48:06;;;;;;;6.37;5.10;;;;;;;24.87;53.76;98796.59;1632313;87;25693;-64
2022/07/22 05:50:33;;;;;;;6.42;4.92;;;;;;;24.63;54.83;98787.28;1632411;87;27486;-64
2022/07/22 05:52:59;;;;;;;6.58;5.10;;;;;;;24.46;55.60;98784.75;1632420;87;25598;-64
2022/07/22 05:55:26;;;;;;;6.75;5.45;;;;;;;24.33;55.49;98780.20;1632563;87;25690;-63
2022/07/22 05:57:53;;;;;;;6.72;5.20;;;;;;;24.22;56.03;98771.83;1632430;87;25842;-64
2022/07/22 06:00:19;;;;;;;7.60;5.25;;;;;;;24.17;56.63;98778.64;1632457;87;25420;-64
2022/07/22 06:02:46;;;;;;;7.12;5.45;;;;;;;24.13;57.08;98777.02;1632311;87;27659;-61
2022/07/22 06:05:12;;;;;;;5.95;5.35;;;;;;;24.09;57.07;98778.42;1632144;87;25624;-64
2022/07/22 06:07:39;;;;;;;7.75;5.28;;;;;;;24.18;57.80;98783.03;1632244;87;25630;-63
2022/07/22 06:10:07;;;;;;;8.48;5.75;;;;;;;24.28;57.25;98791.22;1632505;87;25733;-64
2022/07/22 06:12:34;;;;;;;5.90;5.25;;;;;;;24.42;57.56;98804.38;1632539;87;25450;-63
2022/07/22 06:15:01;;;;;;;9.73;5.58;;;;;;;24.55;57.57;98822.13;1632445;87;28258;-64
2022/07/22 06:17:28;;;;;;;7.53;5.83;;;;;;;24.67;56.98;98825.11;1632235;87;25417;-64
2022/07/22 06:19:54;;;;;;;10.25;5.95;;;;;;;24.84;56.49;98825.44;1632427;87;25676;-64
2022/07/22 06:22:21;;;;;;;9.30;5.83;;;;;;;24.95;56.03;98826.82;1632174;87;25792;-64
2022/07/22 06:24:49;;;;;;;8.70;6.55;;;;;;;25.02;55.90;98830.39;1632499;87;25471;-64
2022/07/22 06:27:16;;;;;;;6.97;5.95;;;;;;;25.09;56.48;98825.92;1632259;87;27533;-64
2022/07/22 06:29:43;;;;;;;8.83;5.47;;;;;;;25.21;57.25;98829.66;1636549;86;25614;-64
2022/07/22 06:32:10;;;;;;;8.08;5.62;;;;;;;25.28;56.09;98832.44;1655812;86;25489;-64
2022/07/22 06:34:37;;;;;;;6.03;5.42;;;;;;;25.42;55.70;98836.36;1655790;86;25967;-64
2022/07/22 06:37:03;;;;;;;7.20;5.87;;;;;;;25.49;55.08;98844.72;1655811;86;25678;-64
2022/07/22 06:39:30;;;;;;;6.75;5.40;;;;;;;25.53;54.46;98832.85;1656069;86;27363;-64
2022/07/22 06:41:57;;;;;;;9.65;5.37;;;;;;;25.62;56.25;98838.02;1631282;86;25691;-62
2022/07/22 06:44:24;;;;;;;6.12;5.53;;;;;;;25.67;55.37;98830.58;1655775;86;25563;-64
2022/07/22 06:46:51;;;;;;;7.97;5.72;;;;;;;25.73;54.84;98829.52;1655818;86;25950;-65
2022/07/22 06:49:17;;;;;;;8.48;5.75;;;;;;;25.89;53.91;98814.97;1656071;86;25592;-65
2022/07/22 06:51:44;;;;;;;6.92;5.75;;;;;;;26.17;55.29;98811.67;1655884;86;27628;-65
2022/07/22 06:54:11;;;;;;;7.85;6.03;;;;;;;26.49;54.06;98811.17;1655824;86;25567;-65
2022/07/22 06:56:38;;;;;;;9.48;5.80;;;;;;;26.74;52.92;98808.64;1655869;86;25651;-65
2022/07/22 06:59:05;;;;;;;8.53;5.95;;;;;;;26.85;52.02;98811.95;1655596;86;25794;-65
2022/07/22 07:01:32;;;;;;;9.10;5.78;;;;;;;26.84;52.64;98813.15;1655894;86;25404;-64
2022/07/22 07:03:58;;;;;;;6.53;5.70;;;;;;;26.84;51.49;98811.14;1655863;86;27595;-63
2022/07/22 07:06:25;;;;;;;6.58;5.28;;;;;;;26.98;50.63;98808.75;1655667;86;25770;-64
2022/07/22 07:08:51;;;;;;;7.05;5.62;;;;;;;27.17;49.77;98809.34;1656016;86;25747;-63
2022/07/22 07:11:18;;;;;;;7.72;5.35;;;;;;;27.48;50.67;98815.48;1655922;86;25771;-64
2022/07/22 07:13:44;;;;;;;6.30;4.78;;;;;;;27.79;49.53;98813.41;1655715;86;25659;-65
2022/07/22 07:16:11;;;;;;;5.65;5.10;;;;;;;27.88;48.67;98815.67;1655870;86;27639;-65
2022/07/22 07:18:38;;;;;;;8.58;5.70;;;;;;;28.01;49.81;98820.05;1655727;86;25727;-66
2022/07/22 07:21:06;;;;;;;6.40;5.25;;;;;;;28.13;48.63;98822.88;1655763;86;25509;-65
2022/07/22 07:23:33;;;;;;;5.33;4.58;;;;;;;28.38;49.06;98816.62;1656111;86;26382;-64
2022/07/22 07:26:00;;;;;;;7.60;5.10;;;;;;;28.70;48.14;98819.41;1655754;86;25449;-66
2022/07/22 07:28:27;;;;;;;6.20;5.42;;;;;;;28.98;47.82;98822.08;1655686;86;27446;-66
2022/07/22 07:30:54;;;;;;;7.72;5.60;;;;;;;29.16;46.55;98823.86;1655601;85;25732;-66
2022/07/22 07:33:20;;;;;;;7.65;5.10;;;;;;;29.39;46.78;98821.35;1655191;86;25506;-66
2022/07/22 07:35:47;;;;;;;6.10;5.00;;;;;;;29.72;47.02;98817.75;1655347;86;26014;-65
2022/07/22 07:38:14;;;;;;;5.60;5.00;;;;;;;30.08;44.83;98818.88;1655502;86;25668;-66
2022/07/22 07:40:42;;;;;;;5.30;4.80;;;;;;;30.34;45.33;98823.25;1655297;86;27667;-66
2022/07/22 07:43:09;;;;;;;9.03;5.25;;;;;;;30.51;43.80;98823.36;1655391;86;25490;-66
2022/07/22 07:45:36;;;;;;;7.95;4.95;;;;;;;30.65;45.26;98819.97;1655178;86;25682;-65
2022/07/22 07:48:05;;;;;;;7.85;5.40;;;;;;;30.91;44.98;98820.05;1655371;86;25789;-67
2022/07/22 07:50:32;;;;;;;6.05;5.42;;;;;;;31.12;44.03;98821.44;1655458;86;25735;-65
2022/07/22 07:52:59;;;;;;;5.53;5.03;;;;;;;31.45;42.95;98819.01;1655235;86;27503;-66
2022/07/22 07:55:26;;;;;;;6.80;5.03;;;;;;;31.62;42.43;98816.04;1655078;86;25645;-65
2022/07/22 07:57:53;;;;;;;6.20;5.30;;;;;;;31.69;40.24;98808.74;1655404;86;25490;-64
2022/07/22 08:00:23;;;;;;;5.65;5.15;;;;;;;31.57;41.26;98810.33;1655396;86;25743;-65
2022/07/22 08:02:51;;;;;;;6.45;4.90;;;;;;;31.88;41.85;98809.70;1655520;86;25510;-64
2022/07/22 08:05:19;;;;;;;8.10;4.70;;;;;;;32.20;41.13;98798.51;1655534;86;27401;-65
2022/07/22 08:07:46;;;;;;;6.35;4.80;;;;;;;32.41;39.70;98812.52;1655208;86;26354;-65
2022/07/22 08:10:13;;;;;;;4.85;4.45;;;;;;;32.60;40.18;98809.05;1655441;86;25424;-64
2022/07/22 08:12:39;;;;;;;5.75;4.53;;;;;;;32.65;39.09;98805.02;1655239;86;25773;-64
2022/07/22 08:15:10;;;;;;;5.15;4.67;;;;;;;32.66;38.64;98816.52;1655650;86;25720;-65
2022/07/22 08:17:37;;;;;;;5.55;5.03;;;;;;;32.53;38.68;98810.13;1655675;86;27397;-64
2022/07/22 08:20:06;;;;;;;5.53;5.05;;;;;;;32.84;38.31;98814.26;1655307;86;25490;-65
2022/07/22 08:22:33;;;;;;;5.17;4.65;;;;;;;33.07;37.50;98814.39;1655683;86;25618;-65
2022/07/22 08:25:01;;;;;;;5.08;4.50;;;;;;;33.02;37.22;98815.78;1655367;86;26113;-65
2022/07/22 08:27:27;;;;;;;5.62;4.78;;;;;;;33.07;36.63;98822.13;1655387;86;25618;-65
2022/07/22 08:29:54;;;;;;;5.08;4.58;;;;;;;32.65;36.20;98812.72;1655429;86;27996;-64
2022/07/22 08:32:21;;;;;;;5.78;4.60;;;;;;;32.70;38.13;98817.81;1655276;86;25617;-65
2022/07/22 08:34:48;;;;;;;5.05;4.58;;;;;;;33.08;38.37;98815.19;1655460;86;25418;-64
2022/07/22 08:37:14;;;;;;;5.53;4.90;;;;;;;33.47;38.08;98817.06;1655261;86;25713;-64
2022/07/22 08:39:41;;;;;;;5.25;4.75;;;;;;;33.66;36.49;98814.31;1655478;86;25723;-64
2022/07/22 08:42:08;;;;;;;9.08;4.97;;;;;;;33.70;36.83;98817.78;1655858;86;28131;-63
2022/07/22 08:44:36;;;;;;;6.22;4.53;;;;;;;33.83;36.38;98818.28;1655435;86;25423;-64
2022/07/22 08:47:03;;;;;;;5.40;4.65;;;;;;;33.98;36.14;98814.98;1655430;86;25696;-64
2022/07/22 08:49:30;;;;;;;5.55;4.90;;;;;;;34.08;36.11;98819.27;1655346;86;26178;-65
2022/07/22 08:51:57;;;;;;;6.35;4.80;;;;;;;34.15;34.94;98826.08;1655570;86;25731;-65
2022/07/22 08:54:24;;;;;;;4.95;4.55;;;;;;;34.27;35.54;98822.91;1655529;86;27490;-64
2022/07/22 08:56:52;;;;;;;5.03;4.53;;;;;;;33.96;34.86;98828.88;1655330;86;25597;-65
2022/07/22 08:59:19;;;;;;;4.78;4.35;;;;;;;34.16;34.44;98824.81;1655684;86;25495;-65
2022/07/22 09:02:07;;;;;;;5.50;4.53;;;;;;;34.41;33.76;98827.18;1655251;86;25770;-65
2022/07/22 09:04:54;;;;;;;5.15;4.65;;;;;;;34.68;33.85;98822.73;1654929;86;25628;-65
2022/07/22 09:07:27;;;;;;;4.90;4.50;;;;;;;34.64;33.89;98819.25;1593335;90;27573;-64
2022/07/22 09:09:53;;;;;;;6.12;5.20;;;;;;;34.90;34.33;98818.90;1593501;90;25800;-65
2022/07/22 09:12:22;;;;;;;5.47;4.90;;;;;;;34.99;34.29;98819.50;1593228;90;25499;-65
2022/07/22 09:14:51;;;;;;;5.70;5.10;;;;;;;35.20;32.89;98819.78;1592781;90;25876;-65
2022/07/22 09:17:35;;;;;;;5.53;4.72;;;;;;;35.10;34.07;98821.20;1593417;90;25662;-65
2022/07/22 09:20:15;;;;;;;5.75;5.25;;;;;;;35.66;34.06;98819.53;1592831;90;27443;-65
2022/07/22 09:22:48;;;;;;;5.85;5.25;;;;;;;36.29;32.61;98817.22;1593255;90;25745;-65
2022/07/22 09:25:31;;;;;;;7.35;5.35;;;;;;;36.25;33.04;98816.62;1593363;90;25703;-65
2022/07/22 09:28:09;;;;;;;7.47;5.78;;;;;;;36.37;32.22;98811.30;1592697;90;25705;-65
2022/07/22 09:30:40;;;;;;;6.25;5.08;;;;;;;36.35;33.02;98815.27;1592492;89;25807;-65
2022/07/22 09:33:08;;;;;;;5.70;5.17;;;;;;;36.28;33.28;98815.02;1589021;90;27564;-65
2022/07/22 09:35:35;;;;;;;6.00;5.25;;;;;;;36.16;33.24;98821.75;1589599;90;25599;-65
2022/07/22 09:38:05;;;;;;;5.42;5.00;;;;;;;35.93;33.09;98813.37;1589458;90;25837;-65
2022/07/22 09:40:39;;;;;;;6.30;5.60;;;;;;;36.06;31.70;98818.83;1589678;90;25802;-65
2022/07/22 09:43:13;;;;;;;6.30;5.70;;;;;;;35.84;31.59;98819.93;1589491;90;25512;-65
2022/07/22 09:45:53;;;;;;;6.08;5.45;;;;;;;35.50;31.14;98812.82;1658801;86;26117;-65
2022/07/22 09:48:22;;;;;;;6.33;5.55;;;;;;;35.29;31.42;98811.20;1660257;86;26196;-65
2022/07/22 09:50:50;;;;;;;6.20;5.40;;;;;;;35.17;32.65;98812.97;1660816;86;25768;-64
2022/07/22 09:53:20;;;;;;;5.85;5.35;;;;;;;35.76;31.85;98815.23;1660635;86;25754;-65
2022/07/22 09:55:48;;;;;;;5.67;5.17;;;;;;;36.09;31.55;98818.63;1660538;86;25443;-64
2022/07/22 09:58:16;;;;;;;6.30;5.70;;;;;;;36.27;30.94;98816.94;1660489;86;27435;-64
2022/07/22 10:00:44;;;;;;;6.25;5.75;;;;;;;36.52;31.81;98805.59;1660411;86;25506;-65
2022/07/22 10:03:27;;;;;;;7.05;5.30;;;;;;;36.65;31.23;98806.75;1660589;86;25496;-62
2022/07/22 10:05:55;;;;;;;5.90;5.30;;;;;;;36.97;31.08;98809.75;1660545;86;25789;-65
2022/07/22 10:08:22;;;;;;;5.87;5.17;;;;;;;37.56;31.36;98807.28;1635534;86;25462;-65
2022/07/22 10:10:50;;;;;;;5.90;5.33;;;;;;;38.12;29.59;98803.58;1660234;86;27458;-65
2022/07/22 10:13:20;;;;;;;6.80;5.70;;;;;;;37.92;28.49;98808.03;1660411;86;25408;-65
2022/07/22 10:15:47;;;;;;;5.65;5.17;;;;;;;37.84;28.70;98803.38;1660444;86;26368;-64
2022/07/22 10:18:17;;;;;;;6.12;5.30;;;;;;;38.36;27.92;98799.72;1660232;86;25834;-65
2022/07/22 10:20:45;;;;;;;6.15;5.60;;;;;;;38.36;27.91;98799.05;1660548;86;25707;-61
2022/07/22 10:23:14;;;;;;;6.80;5.22;;;;;;;37.85;27.46;98797.83;1660772;86;27373;-64
2022/07/22 10:25:56;;;;;;;6.10;5.60;;;;;;;37.59;28.09;98799.14;1660631;86;25764;-62
2022/07/22 10:28:29;;;;;;;5.85;5.17;;;;;;;37.67;28.09;98798.84;1660534;86;25676;-63
2022/07/22 10:31:18;;;;;;;5.62;4.78;;;;;;;37.64;28.63;98792.06;1656252;86;25777;-62
2022/07/22 10:33:53;;;;;;;5.95;5.10;;;;;;;37.84;29.06;98789.09;1625289;87;25687;-62
2022/07/22 10:36:42;;;;;;;5.83;5.28;;;;;;;38.08;28.75;98787.28;1632200;87;28351;-63
2022/07/22 10:39:14;;;;;;;5.90;5.30;;;;;;;38.38;28.99;98787.11;1632295;87;25729;-63
2022/07/22 10:41:45;;;;;;;10.48;5.40;;;;;;;38.70;28.08;98785.74;1632534;87;25460;-63
2022/07/22 10:44:13;;;;;;;8.08;5.12;;;;;;;39.20;28.57;98793.05;1632341;87;25647;-62
2022/07/22 10:46:53;;;;;;;5.78;5.17;;;;;;;39.70;28.27;98788.92;1632351;87;25495;-63
2022/07/22 10:49:24;;;;;;;5.67;5.17;;;;;;;39.50;27.01;98789.83;1632307;87;28036;-63
2022/07/22 10:52:16;;;;;;;8.23;5.55;;;;;;;39.20;27.14;98790.19;1632401;87;25636;-64
2022/07/22 10:55:21;;;;;;;6.20;5.10;;;;;;;39.21;28.10;98788.24;1632127;87;25654;-63
2022/07/22 10:57:49;;;;;;;7.87;5.40;;;;;;;39.20;26.70;98783.78;1632345;87;25800;-63
2022/07/22 11:00:15;;;;;;;5.87;5.22;;;;;;;39.52;28.56;98782.95;1632536;87;25445;-63
2022/07/22 11:02:43;;;;;;;5.70;5.00;;;;;;;39.11;28.19;98773.98;1632273;87;27668;-63
2022/07/22 11:05:10;;;;;;;6.65;5.20;;;;;;;39.31;27.30;98773.05;1632270;87;25669;-63
2022/07/22 11:07:45;;;;;;;6.67;5.35;;;;;;;39.05;27.00;98773.89;1632371;87;25665;-64
2022/07/22 11:10:16;;;;;;;5.78;5.25;;;;;;;39.07;27.43;98771.31;1632416;87;25781;-63
2022/07/22 11:12:44;;;;;;;6.08;5.50;;;;;;;39.28;27.45;98775.50;1632446;87;25195;-64
2022/07/22 11:15:11;;;;;;;6.08;5.20;;;;;;;39.70;27.21;98771.72;1632386;87;27926;-64
2022/07/22 11:17:39;;;;;;;6.85;4.92;;;;;;;40.27;26.12;98769.03;1632278;87;25699;-63
2022/07/22 11:20:10;;;;;;;7.45;5.28;;;;;;;40.79;25.94;98766.23;1632741;87;25724;-64
2022/07/22 11:22:38;;;;;;;6.90;5.00;;;;;;;40.77;24.90;98764.53;1632380;87;26581;-64
2022/07/22 11:25:09;;;;;;;5.83;5.17;;;;;;;40.57;25.51;98761.26;1632069;87;25636;-64
2022/07/22 11:27:36;;;;;;;5.87;4.67;;;;;;;40.33;24.73;98761.88;1632619;87;28213;-64
2022/07/22 11:30:06;;;;;;;5.53;4.97;;;;;;;40.10;25.98;98761.84;1632090;87;25601;-65
2022/07/22 11:32:33;;;;;;;7.62;5.33;;;;;;;40.22;26.08;98763.28;1648367;86;25607;-63
2022/07/22 11:35:00;;;;;;;5.67;5.10;;;;;;;40.13;25.82;98762.24;1655807;86;25840;-65
2022/07/22 11:37:28;;;;;;;6.40;4.53;;;;;;;40.13;25.06;98760.02;1655842;86;25639;-64